createdAt,value
2018-12-29T00:04:37.995Z,102782.58
2018-12-29T00:07:27.383Z,102774.31
2018-12-29T00:10:09.960Z,102812.38
2018-12-29T00:12:59.319Z,102777.30
2018-12-29T00:15:43.549Z,102774.86
2018-12-29T00:18:32.884Z,102768.49
2018-12-29T00:21:16.407Z,102775.47
2018-12-29T00:24:05.753Z,102775.13
2018-12-29T00:26:48.199Z,102799.30
2018-12-29T00:29:37.810Z,102778.76
2018-12-29T00:32:20.201Z,102812.98
2018-12-29T00:35:09.544Z,102794.29
2018-12-29T00:37:51.946Z,102788.70
2018-12-29T00:43:42.737Z,102790.17
2018-12-29T00:46:33.968Z,102814.46
2018-12-29T00:49:16.014Z,102813.03
2018-12-29T00:52:05.618Z,102812.00
2018-12-29T00:54:43.716Z,102807.42
2018-12-29T01:00:20.679Z,102800.91
2018-12-29T01:03:10.330Z,102776.59
2018-12-29T01:05:52.508Z,102797.77
2018-12-29T01:08:34.045Z,102798.79
2018-12-29T01:14:23.977Z,102775.63
2018-12-29T01:17:13.622Z,102798.79
2018-12-29T01:19:56.441Z,102806.16
2018-12-29T01:22:38.440Z,102783.78
2018-12-29T01:25:28.118Z,102819.91
2018-12-29T01:28:10.206Z,102805.53
2018-12-29T01:30:59.592Z,102809.81
2018-12-29T01:33:41.909Z,102834.83
2018-12-29T01:36:31.562Z,102820.30
2018-12-29T01:39:13.449Z,102832.44
2018-12-29T01:42:03.118Z,102835.75
2018-12-29T01:44:46.009Z,102828.50
2018-12-29T01:47:35.329Z,102822.77
2018-12-29T01:50:18.194Z,102826.48
2018-12-29T01:55:54.632Z,102805.95
2018-12-29T01:58:44.103Z,102825.73
2018-12-29T02:01:26.537Z,102792.64
2018-12-29T02:04:15.974Z,102802.43
2018-12-29T02:06:57.995Z,102817.82
2018-12-29T02:09:47.368Z,102818.30
2018-12-29T02:12:36.752Z,102813.84
2018-12-29T02:15:26.170Z,102809.96
2018-12-29T02:18:08.198Z,102781.84
2018-12-29T02:20:57.828Z,102779.47
2018-12-29T02:23:40.298Z,102777.62
2018-12-29T02:26:29.954Z,102786.94
2018-12-29T02:29:12.540Z,102766.14
2018-12-29T02:35:02.689Z,102788.25
2018-12-29T02:37:51.506Z,102791.81
2018-12-29T02:40:33.201Z,102764.59
2018-12-29T02:46:27.718Z,102767.10
2018-12-29T02:52:22.007Z,102778.92
2018-12-29T02:55:31.995Z,102768.56
2018-12-29T02:58:14.550Z,102785.61
2018-12-29T03:01:03.944Z,102762.81
2018-12-29T03:03:45.503Z,102755.50
2018-12-29T03:06:35.416Z,102750.92
2018-12-29T03:09:18.233Z,102779.48
2018-12-29T03:14:54.686Z,102743.48
2018-12-29T03:17:44.088Z,102771.52
2018-12-29T03:20:25.982Z,102746.56
2018-12-29T03:23:15.365Z,102740.36
2018-12-29T03:25:57.503Z,102733.44
2018-12-29T03:28:47.125Z,102739.54
2018-12-29T03:31:28.902Z,102746.73
2018-12-29T03:34:11.105Z,102740.82
2018-12-29T03:37:00.459Z,102733.85
2018-12-29T03:39:42.108Z,102761.86
2018-12-29T03:42:31.550Z,102735.81
2018-12-29T03:45:13.374Z,102737.45
2018-12-29T03:48:02.979Z,102762.92
2018-12-29T03:50:45.192Z,102738.75
2018-12-29T03:53:34.743Z,102736.97
2018-12-29T03:56:18.769Z,102732.76
2018-12-29T04:02:08.906Z,102732.52
2018-12-29T04:04:58.414Z,102738.10
2018-12-29T04:07:40.074Z,102766.52
2018-12-29T04:10:29.432Z,102767.80
2018-12-29T04:13:11.495Z,102767.64
2018-12-29T04:16:00.888Z,102766.66
2018-12-29T04:18:43.674Z,102772.21
2018-12-29T04:21:14.039Z,102770.67
2018-12-29T04:24:03.364Z,102751.15
2018-12-29T04:26:52.747Z,102765.58
2018-12-29T04:29:35.418Z,102764.95
2018-12-29T04:35:12.639Z,102745.46
2018-12-29T04:38:02.120Z,102741.06
2018-12-29T04:40:47.336Z,102738.87
2018-12-29T04:43:36.692Z,102758.53
2018-12-29T04:46:19.267Z,102733.67
2018-12-29T04:51:57.849Z,102733.07
2018-12-29T04:54:47.546Z,102730.93
2018-12-29T04:57:50.717Z,102752.13
2018-12-29T05:00:22.710Z,102749.30
2018-12-29T05:03:05.119Z,102726.66
2018-12-29T05:05:54.529Z,102750.42
2018-12-29T05:08:37.050Z,102740.39
2018-12-29T05:11:26.426Z,102750.27
2018-12-29T05:14:09.642Z,102755.17
2018-12-29T05:16:40.671Z,102759.77
2018-12-29T05:25:12.244Z,102759.60
2018-12-29T05:28:01.631Z,102741.66
2018-12-29T05:30:43.544Z,102760.62
2018-12-29T05:36:20.802Z,102733.16
2018-12-29T05:41:58.811Z,102731.79
2018-12-29T05:44:48.206Z,102747.83
2018-12-29T05:47:37.773Z,102727.12
2018-12-29T05:50:27.129Z,102751.86
2018-12-29T05:53:08.886Z,102733.70
2018-12-29T05:55:58.660Z,102727.55
2018-12-29T05:58:40.407Z,102757.02
2018-12-29T06:04:14.158Z,102775.35
2018-12-29T06:10:06.303Z,102784.59
2018-12-29T06:15:56.359Z,102754.22
2018-12-29T06:18:45.731Z,102748.59
2018-12-29T06:21:27.835Z,102747.68
2018-12-29T06:27:24.294Z,102769.63
2018-12-29T06:30:13.658Z,102741.53
2018-12-29T06:32:44.034Z,102773.05
2018-12-29T06:35:33.465Z,102768.30
2018-12-29T06:44:10.371Z,102748.57
2018-12-29T06:50:01.434Z,102746.13
2018-12-29T06:52:51.065Z,102760.76
2018-12-29T06:55:33.713Z,102755.43
2018-12-29T06:58:23.367Z,102759.91
2018-12-29T07:01:05.419Z,102788.78
2018-12-29T07:07:01.926Z,102772.90
2018-12-29T07:10:10.988Z,102747.28
2018-12-29T07:12:53.281Z,102752.83
2018-12-29T07:15:42.974Z,102764.01
2018-12-29T07:18:25.282Z,102765.06
2018-12-29T07:21:14.884Z,102760.02
2018-12-29T07:23:57.077Z,102735.47
2018-12-29T07:26:39.218Z,102737.34
2018-12-29T07:29:37.940Z,102753.31
2018-12-29T07:32:14.746Z,102755.03
2018-12-29T07:35:06.186Z,102745.16
2018-12-29T07:37:49.530Z,102721.48
2018-12-29T07:51:52.195Z,102730.53
2018-12-29T07:54:41.862Z,102703.86
2018-12-29T07:57:24.525Z,102699.02
2018-12-29T08:03:03.543Z,102701.66
2018-12-29T08:08:40.615Z,102702.39
2018-12-29T08:11:30.268Z,102701.73
2018-12-29T08:14:12.838Z,102668.57
2018-12-29T08:19:50.684Z,102667.35
2018-12-29T08:22:42.038Z,102666.98
2018-12-29T08:25:31.712Z,102696.78
2018-12-29T08:28:15.669Z,102691.50
2018-12-29T08:31:05.012Z,102689.83
2018-12-29T08:33:46.580Z,102672.23
2018-12-29T08:39:37.154Z,102684.98
2018-12-29T08:45:16.027Z,102685.44
2018-12-29T08:48:05.637Z,102690.48
2018-12-29T08:50:47.856Z,102656.34
2018-12-29T08:53:37.496Z,102686.33
2018-12-29T08:56:19.468Z,102658.00
2018-12-29T09:02:10.340Z,102681.31
2018-12-29T09:04:40.635Z,102673.55
2018-12-29T09:07:30.059Z,102649.08
2018-12-29T09:10:19.397Z,102638.70
2018-12-29T09:13:02.366Z,102663.36
2018-12-29T09:15:51.742Z,102627.33
2018-12-29T09:18:22.031Z,102651.05
2018-12-29T09:24:12.663Z,102630.77
2018-12-29T09:26:57.120Z,102616.40
2018-12-29T09:29:46.427Z,102619.61
2018-12-29T09:32:36.070Z,102614.79
2018-12-29T09:35:06.567Z,102648.06
2018-12-29T09:37:56.170Z,102613.84
2018-12-29T09:40:26.370Z,102636.91
2018-12-29T09:45:51.895Z,102626.64
2018-12-29T09:48:41.809Z,102614.66
2018-12-29T09:54:26.751Z,102621.99
2018-12-29T09:57:09.373Z,102590.03
2018-12-29T10:00:00.825Z,102618.83
2018-12-29T10:02:43.528Z,102590.89
2018-12-29T10:05:33.193Z,102591.87
2018-12-29T10:08:15.765Z,102583.53
2018-12-29T10:11:05.426Z,102607.89
2018-12-29T10:13:47.863Z,102601.09
2018-12-29T10:19:13.425Z,102573.96
2018-12-29T10:21:56.246Z,102564.61
2018-12-29T10:24:47.679Z,102564.16
2018-12-29T10:27:30.210Z,102577.57
2018-12-29T10:33:14.675Z,102548.27
2018-12-29T10:35:57.455Z,102547.08
2018-12-29T10:38:47.033Z,102557.62
2018-12-29T10:41:29.255Z,102534.16
2018-12-29T10:44:18.837Z,102507.89
2018-12-29T10:47:00.777Z,102511.11
2018-12-29T10:49:50.147Z,102532.98
2018-12-29T10:55:28.859Z,102512.38
2018-12-29T10:58:11.310Z,102511.80
2018-12-29T11:01:00.977Z,102509.20
2018-12-29T11:03:43.404Z,102502.55
2018-12-29T11:06:33.106Z,102522.14
2018-12-29T11:09:15.691Z,102492.30
2018-12-29T11:12:05.005Z,102509.09
2018-12-29T11:14:56.138Z,102499.52
2018-12-29T11:17:42.199Z,102463.13
2018-12-29T11:20:21.673Z,102466.06
2018-12-29T11:23:11.314Z,102480.08
2018-12-29T11:25:53.838Z,102446.30
2018-12-29T11:28:35.827Z,102423.98
2018-12-29T11:31:25.494Z,102427.38
2018-12-29T11:34:07.807Z,102425.32
2018-12-29T11:39:45.112Z,102412.00
2018-12-29T11:42:34.847Z,102400.58
2018-12-29T11:45:17.271Z,102395.43
2018-12-29T11:48:18.045Z,102405.53
2018-12-29T11:50:54.201Z,102395.95
2018-12-29T11:53:38.710Z,102419.31
2018-12-29T11:56:20.993Z,102395.17
2018-12-29T11:59:10.659Z,102405.25
2018-12-29T12:01:52.835Z,102423.66
2018-12-29T12:04:42.554Z,102409.11
2018-12-29T12:10:27.455Z,102373.71
2018-12-29T12:13:09.815Z,102389.01
2018-12-29T12:15:40.149Z,102390.17
2018-12-29T12:18:29.797Z,102365.33
2018-12-29T12:21:19.595Z,102359.94
2018-12-29T12:24:02.625Z,102372.87
2018-12-29T12:26:52.350Z,102375.61
2018-12-29T12:29:34.538Z,102346.81
2018-12-29T12:35:12.109Z,102337.73
2018-12-29T12:38:01.475Z,102342.41
2018-12-29T12:40:43.624Z,102359.39
2018-12-29T12:43:14.305Z,102343.58
2018-12-29T12:45:58.315Z,102321.30
2018-12-29T12:48:47.861Z,102315.84
2018-12-29T12:51:29.835Z,102328.61
2018-12-29T12:54:19.439Z,102322.78
2018-12-29T12:57:09.199Z,102314.34
2018-12-29T12:59:53.259Z,102307.10
2018-12-29T13:02:36.276Z,102304.97
2018-12-29T13:05:25.756Z,102275.14
2018-12-29T13:08:08.201Z,102269.72
2018-12-29T13:14:03.151Z,102280.32
2018-12-29T13:16:48.042Z,102266.05
2018-12-29T13:19:30.691Z,102244.63
2018-12-29T13:22:39.775Z,102234.54
2018-12-29T13:25:22.322Z,102237.98
2018-12-29T13:28:14.009Z,102203.07
2018-12-29T13:30:56.429Z,102196.87
2018-12-29T13:33:46.068Z,102189.28
2018-12-29T13:36:28.648Z,102190.84
2018-12-29T13:39:18.575Z,102214.53
2018-12-29T13:42:00.359Z,102181.80
2018-12-29T13:44:50.028Z,102179.22
2018-12-29T13:47:32.245Z,102177.06
2018-12-29T13:50:21.889Z,102179.27
2018-12-29T13:53:04.009Z,102157.39
2018-12-29T13:55:53.712Z,102166.39
2018-12-29T13:58:36.700Z,102133.14
2018-12-29T14:01:45.157Z,102132.89
2018-12-29T14:04:26.820Z,102156.28
2018-12-29T14:07:09.603Z,102113.48
2018-12-29T14:13:01.630Z,102116.94
2018-12-29T14:15:51.250Z,102115.38
2018-12-29T14:18:33.809Z,102141.67
2018-12-29T14:21:23.441Z,102114.82
2018-12-29T14:24:05.876Z,102134.36
2018-12-29T14:26:55.512Z,102125.39
2018-12-29T14:29:37.655Z,102118.47
2018-12-29T14:35:28.918Z,102082.72
2018-12-29T14:38:18.538Z,102098.47
2018-12-29T14:41:01.263Z,102059.77
2018-12-29T14:43:52.694Z,102046.05
2018-12-29T14:46:35.198Z,102059.33
2018-12-29T14:49:25.226Z,102048.93
2018-12-29T14:52:07.652Z,102015.49
2018-12-29T14:57:45.010Z,102033.44
2018-12-29T15:03:23.025Z,102032.36
2018-12-29T15:06:13.000Z,102004.46
2018-12-29T15:08:55.852Z,102007.02
2018-12-29T15:14:33.762Z,102017.70
2018-12-29T15:17:24.334Z,102026.95
2018-12-29T15:20:06.593Z,101999.24
2018-12-29T15:22:56.169Z,102001.70
2018-12-29T15:25:38.668Z,101993.27
2018-12-29T15:28:28.417Z,101992.56
2018-12-29T15:31:11.169Z,101988.50
2018-12-29T15:34:01.195Z,101997.44
2018-12-29T15:36:46.082Z,101975.55
2018-12-29T15:39:35.772Z,101972.80
2018-12-29T15:42:18.492Z,101984.45
2018-12-29T15:45:08.780Z,101975.14
2018-12-29T15:47:51.226Z,101972.93
2018-12-29T15:50:21.614Z,101984.13
2018-12-29T15:53:05.477Z,101981.45
2018-12-29T15:55:35.830Z,101982.86
2018-12-29T15:58:19.684Z,101948.68
2018-12-29T16:01:09.410Z,101972.48
2018-12-29T16:03:51.561Z,101952.27
2018-12-29T16:09:55.529Z,101941.98
2018-12-29T16:12:37.261Z,101953.73
2018-12-29T16:18:14.565Z,101944.31
2018-12-29T16:23:52.860Z,101921.98
2018-12-29T16:29:31.379Z,101896.42
2018-12-29T16:32:21.075Z,101887.27
2018-12-29T16:35:03.908Z,101900.55
2018-12-29T16:37:53.564Z,101895.16
2018-12-29T16:40:35.672Z,101856.03
2018-12-29T16:43:25.312Z,101868.99
2018-12-29T16:46:07.901Z,101844.09
2018-12-29T16:48:57.637Z,101840.53
2018-12-29T16:51:42.915Z,101836.65
2018-12-29T16:54:32.655Z,101830.33
2018-12-29T16:57:14.819Z,101820.74
2018-12-29T17:00:06.041Z,101839.81
2018-12-29T17:02:47.716Z,101833.07
2018-12-29T17:05:37.112Z,101790.09
2018-12-29T17:08:19.342Z,101789.66
2018-12-29T17:11:09.356Z,101810.56
2018-12-29T17:14:28.600Z,101786.59
2018-12-29T17:16:42.540Z,101772.75
2018-12-29T17:19:31.960Z,101785.30
2018-12-29T17:22:14.186Z,101772.59
2018-12-29T17:25:03.844Z,101791.95
2018-12-29T17:27:45.715Z,101783.42
2018-12-29T17:30:28.377Z,101756.69
2018-12-29T17:36:05.569Z,101769.77
2018-12-29T17:38:55.068Z,101764.12
2018-12-29T17:41:38.984Z,101732.13
2018-12-29T17:44:21.577Z,101738.08
2018-12-29T17:47:10.977Z,101752.41
2018-12-29T17:49:53.442Z,101743.48
2018-12-29T17:52:42.860Z,101724.17
2018-12-29T17:55:26.870Z,101711.55
2018-12-29T17:58:16.524Z,101713.05
2018-12-29T18:00:58.662Z,101711.70
2018-12-29T18:03:40.965Z,101732.30
2018-12-29T18:06:30.407Z,101727.44
2018-12-29T18:09:01.044Z,101731.34
2018-12-29T18:11:50.466Z,101726.82
2018-12-29T18:14:32.648Z,101694.05
2018-12-29T18:17:22.001Z,101704.67
2018-12-29T18:20:04.749Z,101697.68
2018-12-29T18:22:54.259Z,101718.58
2018-12-29T18:25:36.904Z,101687.25
2018-12-29T18:28:26.327Z,101703.61
2018-12-29T18:31:08.347Z,101683.23
2018-12-29T18:37:00.987Z,101675.40
2018-12-29T18:39:50.382Z,101695.95
2018-12-29T18:42:34.044Z,101695.84
2018-12-29T18:45:23.442Z,101675.28
2018-12-29T18:48:09.851Z,101675.97
2018-12-29T18:50:59.268Z,101700.41
2018-12-29T18:53:43.157Z,101675.67
2018-12-29T18:56:33.160Z,101673.52
2018-12-29T18:59:15.542Z,101672.08
2018-12-29T19:02:05.108Z,101693.29
2018-12-29T19:04:37.084Z,101688.59
2018-12-29T19:07:26.503Z,101669.52
2018-12-29T19:10:15.870Z,101662.98
2018-12-29T19:12:57.910Z,101653.87
2018-12-29T19:15:47.559Z,101674.06
2018-12-29T19:18:29.204Z,101659.38
2018-12-29T19:21:18.570Z,101660.33
2018-12-29T19:24:03.834Z,101648.31
2018-12-29T19:26:53.579Z,101675.34
2018-12-29T19:29:36.970Z,101683.77
2018-12-29T19:32:26.721Z,101663.67
2018-12-29T19:35:10.051Z,101660.91
2018-12-29T19:37:59.477Z,101654.20
2018-12-29T19:40:41.298Z,101651.47
2018-12-29T19:43:31.107Z,101652.57
2018-12-29T19:46:01.450Z,101682.41
2018-12-29T19:48:50.931Z,101661.37
2018-12-29T19:51:33.588Z,101673.58
2018-12-29T19:54:23.022Z,101657.22
2018-12-29T19:57:11.160Z,101658.36
2018-12-29T20:00:00.830Z,101654.13
2018-12-29T20:02:44.393Z,101665.92
2018-12-29T20:05:34.065Z,101647.30
2018-12-29T20:08:16.132Z,101633.60
2018-12-29T20:11:05.580Z,101665.59
2018-12-29T20:13:48.847Z,101653.00
2018-12-29T20:16:38.157Z,101667.66
2018-12-29T20:19:20.097Z,101632.59
2018-12-29T20:22:09.877Z,101666.66
2018-12-29T20:24:55.686Z,101635.83
2018-12-29T20:27:45.170Z,101649.69
2018-12-29T20:30:28.982Z,101639.87
2018-12-29T20:33:19.676Z,101649.48
2018-12-29T20:36:03.579Z,101657.50
2018-12-29T20:38:52.971Z,101673.47
2018-12-29T20:41:35.378Z,101677.22
2018-12-29T20:44:24.812Z,101677.38
2018-12-29T20:47:07.389Z,101652.42
2018-12-29T20:49:37.648Z,101677.22
2018-12-29T20:52:27.119Z,101681.13
2018-12-29T20:55:11.204Z,101657.64
2018-12-29T20:58:00.621Z,101651.78
2018-12-29T21:00:42.232Z,101654.00
2018-12-29T21:03:24.578Z,101686.17
2018-12-29T21:06:14.059Z,101668.66
2018-12-29T21:08:57.956Z,101688.61
2018-12-29T21:11:47.322Z,101686.63
2018-12-29T21:14:33.084Z,101671.95
2018-12-29T21:17:22.416Z,101696.06
2018-12-29T21:20:06.449Z,101696.24
2018-12-29T21:23:15.205Z,101701.44
2018-12-29T21:25:58.651Z,101694.95
2018-12-29T21:31:42.885Z,101682.34
2018-12-29T21:34:25.492Z,101675.16
2018-12-29T21:37:15.169Z,101677.61
2018-12-29T21:39:59.076Z,101710.74
2018-12-29T21:42:49.064Z,101710.45
2018-12-29T21:45:31.246Z,101686.59
2018-12-29T21:48:20.634Z,101714.02
2018-12-29T21:51:02.866Z,101694.89
2018-12-29T21:53:52.180Z,101720.99
2018-12-29T21:56:35.098Z,101718.41
2018-12-29T21:59:24.534Z,101718.56
2018-12-29T22:02:06.507Z,101722.33
2018-12-29T22:05:15.041Z,101699.62
2018-12-29T22:07:57.536Z,101705.31
2018-12-29T22:10:47.265Z,101731.63
2018-12-29T22:13:30.373Z,101713.97
2018-12-29T22:16:19.731Z,101711.20
2018-12-29T22:18:50.043Z,101731.78
2018-12-29T22:21:41.164Z,101745.79
2018-12-29T22:24:23.275Z,101718.99
2018-12-29T22:30:02.132Z,101755.07
2018-12-29T22:32:53.053Z,101735.27
2018-12-29T22:35:35.256Z,101771.14
2018-12-29T22:41:26.746Z,101743.92
2018-12-29T22:44:16.498Z,101780.30
2018-12-29T22:46:58.778Z,101776.56
2018-12-29T22:49:48.395Z,101781.45
2018-12-29T22:52:32.734Z,101774.45
2018-12-29T22:55:22.439Z,101764.14
2018-12-29T22:58:08.499Z,101783.41
2018-12-29T23:00:56.503Z,101793.83
2018-12-29T23:03:40.265Z,101775.08
2018-12-29T23:06:30.041Z,101796.47
2018-12-29T23:09:15.565Z,101770.02
2018-12-29T23:12:06.429Z,101803.16
2018-12-29T23:14:49.433Z,101781.93
2018-12-29T23:17:39.394Z,101807.59
2018-12-29T23:20:22.262Z,101787.80
2018-12-29T23:23:11.694Z,101796.95
2018-12-29T23:25:53.609Z,101826.66
2018-12-29T23:28:43.588Z,101836.47
2018-12-29T23:31:27.208Z,101834.03
2018-12-29T23:33:57.568Z,101834.66
2018-12-29T23:36:47.618Z,101828.36
2018-12-29T23:39:37.051Z,101826.19
2018-12-29T23:42:19.623Z,101864.02
2018-12-29T23:47:46.817Z,101871.20
2018-12-29T23:50:30.679Z,101847.03
2018-12-29T23:53:20.533Z,101873.31
2018-12-29T23:56:04.753Z,101894.89
2018-12-29T23:58:46.642Z,101883.81
